Stations météo

réclame
Mon MeteoGroup
Leuchtturm Kiel, Allemagne (10044): Température de l'air & dewpoint: 05.12.2017 04:00:00 - 11.12.2017 04:00:00 (CET)Leuchtturm Kiel, Allemagne (10044): Vitesse du vent & gusts: 05.12.2017 04:00:00 - 11.12.2017 04:00:00 (CET)Leuchtturm Kiel, Allemagne (10044): Direction du vent: 05.12.2017 04:00:00 - 11.12.2017 04:00:00 (CET)Leuchtturm Kiel, Allemagne (10044): reduced air pressure: 05.12.2017 04:00:00 - 11.12.2017 04:00:00 (CET)Leuchtturm Kiel, Allemagne (10044): Ensoleillement: 05.12.2017 04:00:00 - 11.12.2017 04:00:00 (CET)
Date & Time tt [°C] td [°C] ff [km/h] ff [knt] fx [km/h] fx [knt] dd ppp [hPa] sd [min]
11.12.2017 04:00:00 1,0 -1,7 47 25 - - NE 980,7 0
11.12.2017 03:00:00 1,0 -1,8 40 21 47 25 ENE 979,9 0
11.12.2017 02:00:00 0,9 -1,2 36 19 47 25 E 979,1 0
11.12.2017 01:00:00 0,5 -1,6 43 23 - - E 979,2 0
11.12.2017 00:00:00 0,7 -2,2 43 23 58 31 ESE 979,5 0
10.12.2017 23:00:00 0,6 -2,3 47 25 61 33 ESE 979,8 0
10.12.2017 22:00:00 0,5 -2,5 50 27 - - ESE 979,8 0
10.12.2017 21:00:00 0,6 -1,9 43 23 54 29 SE 980,5 0
10.12.2017 20:00:00 0,3 -2,3 43 23 58 31 SE 981,3 0
10.12.2017 19:00:00 0,3 -2,0 36 19 - - SE 982,0 0
10.12.2017 18:00:00 0,0 -0,7 40 21 47 25 SE 982,9 0
10.12.2017 17:00:00 1,1 -1,6 36 19 - - SE 983,7 0
10.12.2017 16:00:00 1,2 -1,5 32 18 - - SE 984,5 0
10.12.2017 15:00:00 1,2 -2,0 32 18 - - SSE 985,5 0
10.12.2017 14:00:00 1,3 -2,2 32 18 - - SSE 986,6 0
10.12.2017 13:00:00 1,2 -2,8 40 21 - - S 987,8 0
10.12.2017 12:00:00 1,5 -1,7 43 23 58 31 SSW 989,2 0
10.12.2017 11:00:00 1,5 -1,0 43 23 54 29 SSW 990,7 12
10.12.2017 10:00:00 1,3 -1,3 43 23 - - SSW 991,7 0
10.12.2017 09:00:00 1,5 -0,9 47 25 61 33 SSW 992,6 0
10.12.2017 08:00:00 1,6 -0,4 50 27 65 35 SSW 993,3 0
10.12.2017 07:00:00 1,6 0,7 54 29 - - SSW 993,9 0
10.12.2017 06:00:00 0,9 0,5 50 27 65 35 SSW 994,9 0
10.12.2017 05:00:00 1,3 -0,2 58 31 65 35 SSW 995,3 0
10.12.2017 04:00:00 1,3 0,9 50 27 - - SSW 996,0 0
10.12.2017 03:00:00 1,4 0,7 43 23 58 31 SW 997,2 0
10.12.2017 02:00:00 0,9 0,7 50 27 61 33 SW 997,6 0
10.12.2017 01:00:00 1,0 0,6 54 29 - - SW 998,4 0
10.12.2017 00:00:00 1,5 0,4 50 27 61 33 SW 998,9 0
09.12.2017 23:00:00 1,7 0,9 40 21 50 27 SW 999,6 0
09.12.2017 22:00:00 1,4 0,9 32 18 - - SW 1000,2 0
09.12.2017 21:00:00 0,8 0,3 29 16 47 25 SW 1000,8 0
09.12.2017 20:00:00 1,8 0,3 40 21 47 25 SW 1000,9 0
09.12.2017 19:00:00 2,2 0,4 43 23 - - WSW 1000,8 0
09.12.2017 18:00:00 3,2 0,6 32 18 50 27 WSW 1000,9 0
09.12.2017 17:00:00 3,4 0,4 29 16 - - W 1001,1 0
09.12.2017 16:00:00 2,5 0,4 40 21 - - WNW 1001,5 0
09.12.2017 15:00:00 3,7 0,3 36 19 61 33 NW 1001,4 24
09.12.2017 14:00:00 5,0 1,0 40 21 61 33 W 1000,9 30
09.12.2017 13:00:00 4,9 0,1 40 21 - - WSW 1000,6 36
09.12.2017 12:00:00 4,4 0,7 40 21 50 27 WSW 1000,6 54
09.12.2017 11:00:00 3,7 1,0 32 18 58 31 WSW 1000,6 18
09.12.2017 10:00:00 3,7 1,0 43 23 - - WSW 1000,0 0
09.12.2017 09:00:00 3,8 1,1 40 21 54 29 WSW 999,3 0
09.12.2017 08:00:00 3,0 1,7 36 19 - - WSW 999,0 0
09.12.2017 07:00:00 3,2 1,3 36 19 - - W 998,6 0
09.12.2017 06:00:00 2,4 1,6 32 18 54 29 SW 998,4 0
09.12.2017 05:00:00 2,3 1,3 47 25 54 29 SW 998,1 0
09.12.2017 04:00:00 2,3 1,1 47 25 - - SW 998,2 0
09.12.2017 03:00:00 2,0 0,6 47 25 61 33 SW 998,7 0
09.12.2017 02:00:00 1,7 0,2 47 25 61 33 SW 998,9 0
09.12.2017 01:00:00 1,4 0,1 47 25 - - SW 999,4 0
09.12.2017 00:00:00 1,3 0,1 43 23 65 35 SW 1000,3 0
08.12.2017 23:00:00 1,6 0,2 50 27 58 31 SW 999,9 0
08.12.2017 22:00:00 2,1 0,4 47 25 - - SW 999,9 0
08.12.2017 21:00:00 2,1 0,5 47 25 58 31 SW 1000,1 0
08.12.2017 20:00:00 2,6 0,3 40 21 58 31 SW 999,8 0
08.12.2017 19:00:00 2,8 0,2 43 23 - - SW 999,6 0
08.12.2017 18:00:00 2,7 0,9 43 23 54 29 SW 998,8 0
08.12.2017 17:00:00 2,6 1,0 47 25 54 29 SW 998,7 0
08.12.2017 16:00:00 2,8 1,4 36 19 - - SW 998,5 0
08.12.2017 15:00:00 2,6 1,2 43 23 50 27 SW 998,1 0
08.12.2017 14:00:00 2,5 1,3 40 21 54 29 SW 998,5 0
08.12.2017 13:00:00 2,5 1,3 32 18 - - SW 998,8 0
08.12.2017 12:00:00 1,9 0,8 40 21 50 27 SW 998,5 0
08.12.2017 11:00:00 2,0 1,0 43 23 50 27 SW 998,7 0
08.12.2017 10:00:00 2,4 1,5 40 21 - - SW 998,2 0
08.12.2017 09:00:00 2,6 1,9 36 19 47 25 SW 998,3 0
08.12.2017 08:00:00 1,3 0,8 32 18 47 25 SW 998,3 0
08.12.2017 07:00:00 2,4 1,3 29 16 - - WSW 998,3 0
08.12.2017 06:00:00 3,6 0,8 36 19 65 35 WNW 998,0 0
08.12.2017 05:00:00 5,7 3,3 32 18 - - SW 997,6 0
08.12.2017 04:00:00 5,9 2,8 36 19 - - SW 997,4 0
08.12.2017 03:00:00 5,9 4,1 32 18 - - SW 997,5 0
08.12.2017 02:00:00 6,3 4,3 32 18 - - SW 997,6 0
08.12.2017 01:00:00 6,5 4,4 36 19 - - SW 997,3 0
08.12.2017 00:00:00 6,7 4,9 36 19 50 27 SW 997,4 0
07.12.2017 23:00:00 7,0 5,2 40 21 54 29 SW 997,4 0
07.12.2017 22:00:00 6,9 5,3 40 21 - - SW 997,4 0
07.12.2017 21:00:00 6,7 4,8 47 25 76 41 SW 997,7 0
07.12.2017 20:00:00 6,3 4,9 47 25 61 33 SW 998,4 0
07.12.2017 19:00:00 5,8 4,2 54 29 - - SSW 998,7 0
07.12.2017 18:00:00 5,4 4,0 54 29 72 39 SSW 999,4 0
07.12.2017 17:00:00 5,3 3,9 58 31 76 41 SSW 1000,5 0
07.12.2017 16:00:00 4,9 3,1 61 33 - - SSW 1000,9 0
07.12.2017 15:00:00 6,2 3,3 61 33 79 43 SSW 1002,2 0
07.12.2017 14:00:00 6,1 2,4 61 33 76 41 SSW 1003,3 0
07.12.2017 13:00:00 6,0 2,2 61 33 - - SSW 1005,0 0
07.12.2017 12:00:00 5,9 1,7 61 33 76 41 SSW 1006,0 0
07.12.2017 11:00:00 6,2 1,7 65 35 86 47 SSW 1007,2 0
07.12.2017 10:00:00 6,2 1,6 58 31 - - SSW 1008,1 0
07.12.2017 09:00:00 6,3 1,8 65 35 79 43 SSW 1009,1 0
07.12.2017 08:00:00 6,5 1,5 58 31 76 41 SW 1009,9 0
07.12.2017 07:00:00 7,0 2,2 58 31 - - SW 1010,8 0
07.12.2017 06:00:00 7,5 3,1 54 29 72 39 SW 1011,4 0
07.12.2017 05:00:00 7,9 3,7 54 29 65 35 SW 1012,1 0
07.12.2017 04:00:00 8,0 4,1 54 29 - - SW 1013,3 0
07.12.2017 03:00:00 8,0 4,5 50 27 72 39 SW 1014,2 0
07.12.2017 02:00:00 8,3 4,6 50 27 68 37 SW 1014,6 0
07.12.2017 01:00:00 8,8 4,5 58 31 - - SW 1015,2 0
07.12.2017 00:00:00 8,5 4,6 58 31 72 39 WSW 1016,0 0
06.12.2017 23:00:00 8,7 4,1 50 27 65 35 WSW 1016,6 0
06.12.2017 22:00:00 8,5 4,7 50 27 - - WSW 1017,2 0
06.12.2017 21:00:00 9,0 4,9 50 27 61 33 WSW 1017,7 0
06.12.2017 20:00:00 8,8 5,7 47 25 61 33 WSW 1017,9 0
06.12.2017 19:00:00 8,6 6,1 47 25 - - WSW 1018,1 0
06.12.2017 18:00:00 8,7 6,2 54 29 72 39 WSW 1018,1 0
06.12.2017 17:00:00 8,9 6,0 58 31 72 39 WSW 1018,1 0
06.12.2017 16:00:00 9,1 5,6 50 27 - - WSW 1018,6 0
06.12.2017 15:00:00 9,3 5,7 54 29 68 37 WSW 1018,4 0
06.12.2017 14:00:00 9,1 5,6 58 31 68 37 WSW 1018,8 0
06.12.2017 13:00:00 9,0 5,6 61 33 - - W 1018,7 0
06.12.2017 12:00:00 8,9 6,1 61 33 72 39 WSW 1018,8 0
06.12.2017 11:00:00 8,7 5,7 58 31 76 41 WSW 1018,8 0
06.12.2017 10:00:00 8,3 4,7 61 33 - - WSW 1019,1 0
06.12.2017 09:00:00 8,2 4,5 58 31 72 39 WSW 1018,9 0
06.12.2017 08:00:00 8,2 4,9 58 31 72 39 WSW 1018,8 0
06.12.2017 07:00:00 8,1 5,0 58 31 - - WSW 1019,4 0
06.12.2017 06:00:00 7,9 5,2 54 29 65 35 WSW 1019,7 0
06.12.2017 05:00:00 7,7 5,0 50 27 65 35 WSW 1019,8 0
06.12.2017 04:00:00 7,6 5,0 47 25 - - WSW 1020,5 0
06.12.2017 03:00:00 7,5 5,6 43 23 68 37 WSW 1021,4 0
06.12.2017 02:00:00 7,6 5,7 50 27 61 33 WSW 1021,4 0
06.12.2017 01:00:00 7,5 5,9 50 27 - - W 1021,7 0
06.12.2017 00:00:00 7,9 5,6 54 29 61 33 W 1021,7 0
05.12.2017 23:00:00 7,9 5,5 50 27 65 35 WSW 1021,7 0
05.12.2017 22:00:00 8,1 5,4 54 29 - - W 1022,0 0
05.12.2017 21:00:00 7,6 6,3 50 27 65 35 W 1021,9 0
05.12.2017 20:00:00 8,1 6,0 58 31 65 35 W 1021,8 0
05.12.2017 19:00:00 8,1 6,7 50 27 - - W 1022,1 0
05.12.2017 18:00:00 8,4 6,1 47 25 61 33 W 1022,4 0
05.12.2017 17:00:00 8,5 6,1 50 27 65 35 W 1022,6 0
05.12.2017 16:00:00 8,5 5,9 50 27 - - W 1022,3 0
05.12.2017 15:00:00 8,6 6,3 54 29 68 37 W 1022,3 0
05.12.2017 14:00:00 9,2 5,7 54 29 68 37 W 1022,8 0
05.12.2017 13:00:00 9,0 6,0 47 25 - - W 1023,2 0
05.12.2017 12:00:00 8,7 5,5 43 23 50 27 WSW 1023,5 30
05.12.2017 11:00:00 8,1 6,4 40 21 54 29 W 1024,1 6
05.12.2017 10:00:00 7,7 6,9 36 19 - - W 1024,1 0
05.12.2017 09:00:00 7,5 6,5 40 21 47 25 WSW 1023,8 0
05.12.2017 08:00:00 7,6 6,5 40 21 47 25 W 1023,6 0
05.12.2017 07:00:00 7,7 6,7 40 21 - - W 1023,4 0
05.12.2017 06:00:00 7,9 6,6 43 23 54 29 W 1023,3 0
05.12.2017 05:00:00 8,0 6,6 40 21 47 25 W 1023,3 0
05.12.2017 04:00:00 7,7 6,9 36 19 - - W 1023,6 0

tt = Température de l'air
td = dewpoint
ff = Vitesse du vent
fx = gusts
dd = Direction du vent
ppp = reduced air pressure
sd = Ensoleillement

stations d'obs. à proximité